sensor_id;sensor_type;location;lat;lon;timestamp;pressure;altitude;pressure_sealevel;temperature;humidity
75886;BME280;64561;44.018;10.144;2023-06-04T00:02:31;101521.28;;;18.88;77.08
75886;BME280;64561;44.018;10.144;2023-06-04T00:04:58;101527.34;;;18.84;77.55
75886;BME280;64561;44.018;10.144;2023-06-04T00:07:25;101526.44;;;18.77;77.65
75886;BME280;64561;44.018;10.144;2023-06-04T00:09:53;101516.06;;;18.72;77.73
75886;BME280;64561;44.018;10.144;2023-06-04T00:12:20;101518.63;;;18.63;78.20
75886;BME280;64561;44.018;10.144;2023-06-04T00:14:47;101517.78;;;18.63;78.63
75886;BME280;64561;44.018;10.144;2023-06-04T00:17:14;101516.91;;;18.64;78.48
75886;BME280;64561;44.018;10.144;2023-06-04T00:19:41;101508.25;;;18.60;77.97
75886;BME280;64561;44.018;10.144;2023-06-04T00:22:08;101508.25;;;18.57;77.89
75886;BME280;64561;44.018;10.144;2023-06-04T00:24:37;101510.84;;;18.54;78.46
75886;BME280;64561;44.018;10.144;2023-06-04T00:27:07;101521.19;;;18.59;78.55
75886;BME280;64561;44.018;10.144;2023-06-04T00:29:34;101518.63;;;18.65;78.67
75886;BME280;64561;44.018;10.144;2023-06-04T00:32:02;101513.47;;;18.66;78.86
75886;BME280;64561;44.018;10.144;2023-06-04T00:34:30;101503.09;;;18.66;78.72
75886;BME280;64561;44.018;10.144;2023-06-04T00:36:57;101503.97;;;18.65;78.77
75886;BME280;64561;44.018;10.144;2023-06-04T00:39:24;101498.75;;;18.59;78.51
75886;BME280;64561;44.018;10.144;2023-06-04T00:41:51;101510.84;;;18.62;78.55
75886;BME280;64561;44.018;10.144;2023-06-04T00:44:18;101508.25;;;18.60;79.08
75886;BME280;64561;44.018;10.144;2023-06-04T00:47:02;101510.84;;;18.65;78.92
75886;BME280;64561;44.018;10.144;2023-06-04T00:49:29;101507.38;;;18.58;78.75
75886;BME280;64561;44.018;10.144;2023-06-04T00:51:57;101507.41;;;18.57;78.50
75886;BME280;64561;44.018;10.144;2023-06-04T00:54:27;101520.34;;;18.55;79.26
75886;BME280;64561;44.018;10.144;2023-06-04T00:56:55;101517.75;;;18.58;79.33
75886;BME280;64561;44.018;10.144;2023-06-04T00:59:22;101514.28;;;18.42;79.26
75886;BME280;64561;44.018;10.144;2023-06-04T01:02:00;101516.84;;;18.41;79.38
75886;BME280;64561;44.018;10.144;2023-06-04T01:07:03;101505.59;;;18.37;79.01
75886;BME280;64561;44.018;10.144;2023-06-04T01:09:31;101506.47;;;18.38;79.36
75886;BME280;64561;44.018;10.144;2023-06-04T01:11:59;101506.47;;;18.41;79.14
75886;BME280;64561;44.018;10.144;2023-06-04T01:14:28;101503.91;;;18.47;79.28
75886;BME280;64561;44.018;10.144;2023-06-04T01:17:17;101510.81;;;18.49;79.12
75886;BME280;64561;44.018;10.144;2023-06-04T01:22:38;101503.06;;;18.51;78.88
75886;BME280;64561;44.018;10.144;2023-06-04T01:25:15;101498.69;;;18.38;79.49
75886;BME280;64561;44.018;10.144;2023-06-04T01:27:49;101497.84;;;18.33;79.90
75886;BME280;64561;44.018;10.144;2023-06-04T01:30:35;101497.81;;;18.31;79.66
75886;BME280;64561;44.018;10.144;2023-06-04T01:33:15;101498.69;;;18.33;79.53
75886;BME280;64561;44.018;10.144;2023-06-04T01:35:43;101501.25;;;18.24;80.03
75886;BME280;64561;44.018;10.144;2023-06-04T01:38:10;101502.09;;;18.12;81.05
75886;BME280;64561;44.018;10.144;2023-06-04T01:40:37;101500.34;;;18.08;81.01
75886;BME280;64561;44.018;10.144;2023-06-04T01:43:04;101489.94;;;17.97;82.25
75886;BME280;64561;44.018;10.144;2023-06-04T01:45:32;101507.22;;;18.03;83.04
75886;BME280;64561;44.018;10.144;2023-06-04T01:48:02;101507.22;;;18.08;82.87
75886;BME280;64561;44.018;10.144;2023-06-04T01:50:29;101502.94;;;18.13;83.00
75886;BME280;64561;44.018;10.144;2023-06-04T01:52:57;101508.16;;;18.17;82.73
75886;BME280;64561;44.018;10.144;2023-06-04T01:55:24;101507.28;;;18.23;82.62
75886;BME280;64561;44.018;10.144;2023-06-04T01:57:52;101503.84;;;18.28;82.16
75886;BME280;64561;44.018;10.144;2023-06-04T02:00:20;101503.00;;;18.30;82.10
75886;BME280;64561;44.018;10.144;2023-06-04T02:02:47;101515.09;;;18.31;82.00
75886;BME280;64561;44.018;10.144;2023-06-04T02:05:17;101498.66;;;18.28;81.81
75886;BME280;64561;44.018;10.144;2023-06-04T02:07:46;101504.72;;;18.29;82.44
75886;BME280;64561;44.018;10.144;2023-06-04T02:10:16;101507.28;;;18.26;82.48
75886;BME280;64561;44.018;10.144;2023-06-04T02:13:00;101503.84;;;18.24;81.69
75886;BME280;64561;44.018;10.144;2023-06-04T02:15:31;101509.88;;;18.23;81.78
75886;BME280;64561;44.018;10.144;2023-06-04T02:18:11;101514.22;;;18.25;81.97
75886;BME280;64561;44.018;10.144;2023-06-04T02:21:04;101505.56;;;18.14;81.45
75886;BME280;64561;44.018;10.144;2023-06-04T02:23:31;101507.25;;;18.06;82.64
75886;BME280;64561;44.018;10.144;2023-06-04T02:25:58;101501.19;;;18.02;82.48
75886;BME280;64561;44.018;10.144;2023-06-04T02:28:25;101499.44;;;18.01;82.76
75886;BME280;64561;44.018;10.144;2023-06-04T02:30:53;101493.41;;;18.04;82.46
75886;BME280;64561;44.018;10.144;2023-06-04T02:33:20;101496.00;;;18.04;82.31
75886;BME280;64561;44.018;10.144;2023-06-04T02:35:49;101490.81;;;18.01;82.42
75886;BME280;64561;44.018;10.144;2023-06-04T02:38:17;101496.88;;;18.08;82.54
75886;BME280;64561;44.018;10.144;2023-06-04T02:40:44;101502.94;;;18.11;82.59
75886;BME280;64561;44.018;10.144;2023-06-04T02:43:11;101502.09;;;18.12;82.25
75886;BME280;64561;44.018;10.144;2023-06-04T02:45:38;101502.09;;;18.12;81.80
75886;BME280;64561;44.018;10.144;2023-06-04T02:48:05;101498.63;;;18.09;81.98
75886;BME280;64561;44.018;10.144;2023-06-04T02:50:32;101490.00;;;18.08;82.09
75886;BME280;64561;44.018;10.144;2023-06-04T02:52:59;101501.22;;;18.12;81.89
75886;BME280;64561;44.018;10.144;2023-06-04T02:55:26;101493.44;;;18.12;82.32
75886;BME280;64561;44.018;10.144;2023-06-04T02:57:53;101494.31;;;18.09;82.09
75886;BME280;64561;44.018;10.144;2023-06-04T03:00:20;101497.72;;;18.00;82.06
75886;BME280;64561;44.018;10.144;2023-06-04T03:02:47;101490.72;;;17.82;83.20
75886;BME280;64561;44.018;10.144;2023-06-04T03:05:16;101488.91;;;17.69;83.92
75886;BME280;64561;44.018;10.144;2023-06-04T03:07:46;101488.91;;;17.66;84.36
75886;BME280;64561;44.018;10.144;2023-06-04T03:10:15;101483.72;;;17.66;84.86
75886;BME280;64561;44.018;10.144;2023-06-04T03:12:43;101490.63;;;17.72;84.74
75886;BME280;64561;44.018;10.144;2023-06-04T03:15:11;101494.09;;;17.69;85.42
75886;BME280;64561;44.018;10.144;2023-06-04T03:17:38;101490.63;;;17.70;85.45
75886;BME280;64561;44.018;10.144;2023-06-04T03:20:06;101484.59;;;17.71;85.37
75886;BME280;64561;44.018;10.144;2023-06-04T03:22:34;101482.03;;;17.74;85.58
75886;BME280;64561;44.018;10.144;2023-06-04T03:25:03;101489.84;;;17.80;85.27
75886;BME280;64561;44.018;10.144;2023-06-04T03:27:32;101486.44;;;17.86;84.57
75886;BME280;64561;44.018;10.144;2023-06-04T03:29:59;101498.53;;;17.87;84.82
75886;BME280;64561;44.018;10.144;2023-06-04T03:32:33;101504.59;;;17.94;84.51
75886;BME280;64561;44.018;10.144;2023-06-04T03:35:01;101507.22;;;17.97;84.27
75886;BME280;64561;44.018;10.144;2023-06-04T03:37:29;101504.63;;;18.01;83.85
75886;BME280;64561;44.018;10.144;2023-06-04T03:39:56;101501.16;;;18.01;83.75
75886;BME280;64561;44.018;10.144;2023-06-04T03:42:23;101500.28;;;17.96;83.37
75886;BME280;64561;44.018;10.144;2023-06-04T03:44:51;101499.41;;;17.94;83.27
75886;BME280;64561;44.018;10.144;2023-06-04T03:47:19;101498.53;;;17.84;83.55
75886;BME280;64561;44.018;10.144;2023-06-04T03:49:46;101488.94;;;17.74;84.07
75886;BME280;64561;44.018;10.144;2023-06-04T03:52:13;101478.59;;;17.72;84.40
75886;BME280;64561;44.018;10.144;2023-06-04T03:54:41;101492.44;;;17.79;84.81
75886;BME280;64561;44.018;10.144;2023-06-04T03:57:08;101491.59;;;17.81;84.65
75886;BME280;64561;44.018;10.144;2023-06-04T03:59:35;101495.94;;;17.84;84.46
75886;BME280;64561;44.018;10.144;2023-06-04T04:02:03;101495.06;;;17.90;84.55
75886;BME280;64561;44.018;10.144;2023-06-04T04:04:33;101492.47;;;17.90;84.49
75886;BME280;64561;44.018;10.144;2023-06-04T04:07:00;101494.22;;;17.92;84.72
75886;BME280;64561;44.018;10.144;2023-06-04T04:09:27;101495.09;;;17.94;84.33
75886;BME280;64561;44.018;10.144;2023-06-04T04:11:55;101502.88;;;17.96;84.52
75886;BME280;64561;44.018;10.144;2023-06-04T04:14:22;101499.44;;;18.00;84.29
75886;BME280;64561;44.018;10.144;2023-06-04T04:16:49;101496.00;;;18.02;84.08
75886;BME280;64561;44.018;10.144;2023-06-04T04:19:16;101498.59;;;17.99;84.18
75886;BME280;64561;44.018;10.144;2023-06-04T04:21:44;101495.13;;;17.97;83.89
75886;BME280;64561;44.018;10.144;2023-06-04T04:26:52;101489.94;;;17.97;84.08
75886;BME280;64561;44.018;10.144;2023-06-04T04:29:21;101487.31;;;17.93;83.68
75886;BME280;64561;44.018;10.144;2023-06-04T04:31:52;101483.81;;;17.78;84.51
75886;BME280;64561;44.018;10.144;2023-06-04T04:34:21;101483.75;;;17.72;85.24
75886;BME280;64561;44.018;10.144;2023-06-04T04:36:49;101474.22;;;17.68;85.77
75886;BME280;64561;44.018;10.144;2023-06-04T04:39:24;101470.84;;;17.75;85.54
75886;BME280;64561;44.018;10.144;2023-06-04T04:41:55;101464.81;;;17.79;85.88
75886;BME280;64561;44.018;10.144;2023-06-04T04:44:22;101465.63;;;17.77;86.26
75886;BME280;64561;44.018;10.144;2023-06-04T04:46:50;101463.97;;;17.82;86.20
75886;BME280;64561;44.018;10.144;2023-06-04T04:49:17;101464.00;;;17.88;86.49
75886;BME280;64561;44.018;10.144;2023-06-04T04:51:44;101463.19;;;17.97;86.38
75886;BME280;64561;44.018;10.144;2023-06-04T04:54:12;101465.78;;;18.08;86.48
75886;BME280;64561;44.018;10.144;2023-06-04T04:56:40;101471.00;;;18.17;86.28
75886;BME280;64561;44.018;10.144;2023-06-04T04:59:07;101468.41;;;18.23;86.23
75886;BME280;64561;44.018;10.144;2023-06-04T05:01:35;101469.31;;;18.28;85.99
75886;BME280;64561;44.018;10.144;2023-06-04T05:04:03;101457.22;;;18.32;85.86
75886;BME280;64561;44.018;10.144;2023-06-04T05:06:32;101460.69;;;18.37;85.52
75886;BME280;64561;44.018;10.144;2023-06-04T05:09:00;101457.22;;;18.38;85.49
75886;BME280;64561;44.018;10.144;2023-06-04T05:11:28;101462.41;;;18.44;85.86
75886;BME280;64561;44.018;10.144;2023-06-04T05:13:55;101466.78;;;18.51;85.48
75886;BME280;64561;44.018;10.144;2023-06-04T05:16:22;101471.97;;;18.54;85.26
75886;BME280;64561;44.018;10.144;2023-06-04T05:18:49;101477.16;;;18.57;84.93
75886;BME280;64561;44.018;10.144;2023-06-04T05:21:22;101473.69;;;18.60;85.22
75886;BME280;64561;44.018;10.144;2023-06-04T05:23:55;101481.50;;;18.69;84.95
75886;BME280;64561;44.018;10.144;2023-06-04T05:26:27;101491.00;;;18.71;84.71
75886;BME280;64561;44.018;10.144;2023-06-04T05:28:58;101491.03;;;18.75;84.56
75886;BME280;64561;44.018;10.144;2023-06-04T05:31:28;101496.22;;;18.82;84.56
75886;BME280;64561;44.018;10.144;2023-06-04T05:33:57;101497.94;;;18.85;84.54
75886;BME280;64561;44.018;10.144;2023-06-04T05:36:29;101498.81;;;18.91;84.48
75886;BME280;64561;44.018;10.144;2023-06-04T05:38:59;101497.06;;;18.95;84.79
75886;BME280;64561;44.018;10.144;2023-06-04T05:41:36;101496.22;;;18.98;84.58
75886;BME280;64561;44.018;10.144;2023-06-04T05:44:05;101502.25;;;19.01;84.29
75886;BME280;64561;44.018;10.144;2023-06-04T05:46:32;101497.97;;;19.02;84.25
75886;BME280;64561;44.018;10.144;2023-06-04T05:48:59;101505.72;;;19.03;83.85
75886;BME280;64561;44.018;10.144;2023-06-04T05:51:27;101508.31;;;19.09;83.79
75886;BME280;64561;44.018;10.144;2023-06-04T05:53:55;101516.97;;;19.13;83.54
75886;BME280;64561;44.018;10.144;2023-06-04T05:56:22;101516.97;;;19.16;83.15
75886;BME280;64561;44.018;10.144;2023-06-04T05:58:52;101525.63;;;19.24;84.05
75886;BME280;64561;44.018;10.144;2023-06-04T06:01:22;101533.41;;;19.27;83.03
75886;BME280;64561;44.018;10.144;2023-06-04T06:03:50;101532.53;;;19.30;83.11
75886;BME280;64561;44.018;10.144;2023-06-04T06:06:19;101536.88;;;19.32;82.92
75886;BME280;64561;44.018;10.144;2023-06-04T06:08:48;101529.94;;;19.30;82.62
75886;BME280;64561;44.018;10.144;2023-06-04T06:11:16;101528.19;;;19.33;82.49
75886;BME280;64561;44.018;10.144;2023-06-04T06:13:43;101534.25;;;19.37;81.49
75886;BME280;64561;44.018;10.144;2023-06-04T06:16:12;101529.94;;;19.39;81.25
75886;BME280;64561;44.018;10.144;2023-06-04T06:18:39;101536.84;;;19.41;80.69
75886;BME280;64561;44.018;10.144;2023-06-04T06:21:06;101551.56;;;19.47;79.95
75886;BME280;64561;44.018;10.144;2023-06-04T06:23:34;101561.94;;;19.53;79.65
75886;BME280;64561;44.018;10.144;2023-06-04T06:26:02;101570.56;;;19.55;80.37
75886;BME280;64561;44.018;10.144;2023-06-04T06:28:33;101556.72;;;19.61;80.20
75886;BME280;64561;44.018;10.144;2023-06-04T06:31:01;101558.44;;;19.63;79.82
75886;BME280;64561;44.018;10.144;2023-06-04T06:33:29;101558.44;;;19.63;78.80
75886;BME280;64561;44.018;10.144;2023-06-04T06:35:56;101564.53;;;19.66;77.94
75886;BME280;64561;44.018;10.144;2023-06-04T06:38:26;101573.19;;;19.72;78.50
75886;BME280;64561;44.018;10.144;2023-06-04T06:40:53;101568.84;;;19.79;78.88
75886;BME280;64561;44.018;10.144;2023-06-04T06:43:20;101570.56;;;19.83;78.88
75886;BME280;64561;44.018;10.144;2023-06-04T06:45:47;101568.81;;;19.88;78.66
75886;BME280;64561;44.018;10.144;2023-06-04T06:48:14;101571.41;;;19.90;78.42
75886;BME280;64561;44.018;10.144;2023-06-04T06:50:42;101572.25;;;19.96;78.66
75886;BME280;64561;44.018;10.144;2023-06-04T06:53:10;101571.38;;;19.97;78.03
75886;BME280;64561;44.018;10.144;2023-06-04T06:55:37;101573.13;;;20.01;77.93
75886;BME280;64561;44.018;10.144;2023-06-04T06:58:04;101585.22;;;20.02;77.46
75886;BME280;64561;44.018;10.144;2023-06-04T07:00:31;101585.22;;;20.07;77.34
75886;BME280;64561;44.018;10.144;2023-06-04T07:02:59;101586.09;;;20.07;77.18
75886;BME280;64561;44.018;10.144;2023-06-04T07:05:26;101596.44;;;20.15;77.75
75886;BME280;64561;44.018;10.144;2023-06-04T07:07:53;101593.84;;;20.23;77.78
75886;BME280;64561;44.018;10.144;2023-06-04T07:10:21;101602.50;;;20.23;77.33
75886;BME280;64561;44.018;10.144;2023-06-04T07:12:48;101598.16;;;20.24;77.23
75886;BME280;64561;44.018;10.144;2023-06-04T07:15:15;101603.34;;;20.28;77.37
75886;BME280;64561;44.018;10.144;2023-06-04T07:17:42;101606.75;;;20.37;78.40
75886;BME280;64561;44.018;10.144;2023-06-04T07:20:09;101598.06;;;20.50;76.20
75886;BME280;64561;44.018;10.144;2023-06-04T07:22:38;101597.19;;;20.48;75.99
75886;BME280;64561;44.018;10.144;2023-06-04T07:25:05;101603.25;;;20.50;76.25
75886;BME280;64561;44.018;10.144;2023-06-04T07:27:33;101600.63;;;20.58;77.32
75886;BME280;64561;44.018;10.144;2023-06-04T07:30:00;101601.50;;;20.60;76.45
75886;BME280;64561;44.018;10.144;2023-06-04T07:32:29;101602.38;;;20.59;76.14
75886;BME280;64561;44.018;10.144;2023-06-04T07:34:56;101605.81;;;20.61;76.48
75886;BME280;64561;44.018;10.144;2023-06-04T07:37:24;101598.84;;;20.73;77.53
75886;BME280;64561;44.018;10.144;2023-06-04T07:39:51;101598.78;;;20.81;76.50
75886;BME280;64561;44.018;10.144;2023-06-04T07:42:18;101598.75;;;20.84;75.79
75886;BME280;64561;44.018;10.144;2023-06-04T07:44:45;101597.91;;;20.82;75.15
75886;BME280;64561;44.018;10.144;2023-06-04T07:47:12;101590.09;;;20.85;75.69
75886;BME280;64561;44.018;10.144;2023-06-04T07:49:39;101579.69;;;20.84;75.81
75886;BME280;64561;44.018;10.144;2023-06-04T07:52:26;101585.72;;;20.87;75.85
75886;BME280;64561;44.018;10.144;2023-06-04T07:54:53;101583.97;;;20.91;74.69
75886;BME280;64561;44.018;10.144;2023-06-04T07:57:20;101583.97;;;20.92;74.53
75886;BME280;64561;44.018;10.144;2023-06-04T07:59:48;101580.50;;;20.92;75.07
75886;BME280;64561;44.018;10.144;2023-06-04T08:02:15;101579.59;;;21.00;74.61
75886;BME280;64561;44.018;10.144;2023-06-04T08:04:42;101581.22;;;21.11;74.86
75886;BME280;64561;44.018;10.144;2023-06-04T08:07:09;101579.50;;;21.10;74.96
75886;BME280;64561;44.018;10.144;2023-06-04T08:09:37;101574.28;;;21.11;76.43
75886;BME280;64561;44.018;10.144;2023-06-04T08:12:04;101581.25;;;21.08;76.60
75886;BME280;64561;44.018;10.144;2023-06-04T08:14:36;101586.41;;;21.15;76.73
75886;BME280;64561;44.018;10.144;2023-06-04T08:17:03;101586.38;;;21.21;76.42
75886;BME280;64561;44.018;10.144;2023-06-04T08:19:50;101587.19;;;21.28;76.86
75886;BME280;64561;44.018;10.144;2023-06-04T08:22:37;101576.72;;;21.31;76.31
75886;BME280;64561;44.018;10.144;2023-06-04T08:25:24;101570.69;;;21.28;74.44
75886;BME280;64561;44.018;10.144;2023-06-04T08:28:13;101567.25;;;21.24;75.29
75886;BME280;64561;44.018;10.144;2023-06-04T08:30:56;101570.69;;;21.26;74.17
75886;BME280;64561;44.018;10.144;2023-06-04T08:33:37;101576.72;;;21.37;75.92
75886;BME280;64561;44.018;10.144;2023-06-04T08:36:08;101573.22;;;21.38;76.82
75886;BME280;64561;44.018;10.144;2023-06-04T08:38:35;101565.41;;;21.38;75.72
75886;BME280;64561;44.018;10.144;2023-06-04T08:41:12;101574.00;;;21.51;76.47
75886;BME280;64561;44.018;10.144;2023-06-04T08:43:42;101567.91;;;21.52;75.01
75886;BME280;64561;44.018;10.144;2023-06-04T08:46:13;101567.03;;;21.52;73.77
75886;BME280;64561;44.018;10.144;2023-06-04T08:48:41;101576.50;;;21.59;74.68
75886;BME280;64561;44.018;10.144;2023-06-04T08:51:10;101572.13;;;21.64;73.44
75886;BME280;64561;44.018;10.144;2023-06-04T08:53:38;101565.06;;;21.72;73.17
75886;BME280;64561;44.018;10.144;2023-06-04T08:56:05;101565.91;;;21.79;73.72
75886;BME280;64561;44.018;10.144;2023-06-04T08:58:32;101576.28;;;21.80;73.63
75886;BME280;64561;44.018;10.144;2023-06-04T09:01:02;101568.38;;;21.91;73.47
75886;BME280;64561;44.018;10.144;2023-06-04T09:03:29;101570.88;;;21.99;72.61
75886;BME280;64561;44.018;10.144;2023-06-04T09:06:00;101574.38;;;21.96;72.39
75886;BME280;64561;44.018;10.144;2023-06-04T09:08:31;101573.44;;;22.03;72.45
75886;BME280;64561;44.018;10.144;2023-06-04T09:11:05;101562.22;;;21.97;73.78
75886;BME280;64561;44.018;10.144;2023-06-04T09:13:34;101566.53;;;21.99;72.94
75886;BME280;64561;44.018;10.144;2023-06-04T09:16:02;101579.47;;;22.08;74.01
75886;BME280;64561;44.018;10.144;2023-06-04T09:18:30;101567.34;;;22.06;73.53
75886;BME280;64561;44.018;10.144;2023-06-04T09:21:15;101585.56;;;22.06;73.41
75886;BME280;64561;44.018;10.144;2023-06-04T09:26:10;101579.47;;;22.07;73.44
75886;BME280;64561;44.018;10.144;2023-06-04T09:28:44;101582.13;;;22.05;72.56
75886;BME280;64561;44.018;10.144;2023-06-04T09:31:16;101596.75;;;22.14;72.28
75886;BME280;64561;44.018;10.144;2023-06-04T09:33:50;101601.16;;;22.10;71.05
75886;BME280;64561;44.018;10.144;2023-06-04T09:36:20;101596.84;;;22.08;70.64
75886;BME280;64561;44.018;10.144;2023-06-04T09:38:48;101593.41;;;22.06;71.14
75886;BME280;64561;44.018;10.144;2023-06-04T09:41:17;101602.91;;;22.11;71.40
75886;BME280;64561;44.018;10.144;2023-06-04T09:44:01;101601.97;;;22.17;71.64
75886;BME280;64561;44.018;10.144;2023-06-04T09:46:29;101592.41;;;22.19;71.43
75886;BME280;64561;44.018;10.144;2023-06-04T09:49:02;101597.47;;;22.31;72.66
75886;BME280;64561;44.018;10.144;2023-06-04T09:51:30;101604.47;;;22.29;72.15
75886;BME280;64561;44.018;10.144;2023-06-04T09:54:03;101588.72;;;22.35;71.88
75886;BME280;64561;44.018;10.144;2023-06-04T09:56:39;101597.25;;;22.47;70.56
75886;BME280;64561;44.018;10.144;2023-06-04T09:59:08;101598.00;;;22.58;70.95
75886;BME280;64561;44.018;10.144;2023-06-04T10:01:39;101584.91;;;22.63;71.99
75886;BME280;64561;44.018;10.144;2023-06-04T10:04:09;101579.59;;;22.69;71.03
75886;BME280;64561;44.018;10.144;2023-06-04T10:06:39;101580.31;;;22.78;70.74
75886;BME280;64561;44.018;10.144;2023-06-04T10:09:08;101575.00;;;22.85;70.72
75886;BME280;64561;44.018;10.144;2023-06-04T10:11:47;101588.00;;;22.88;69.40
75886;BME280;64561;44.018;10.144;2023-06-04T10:14:27;101574.16;;;22.82;69.99
75886;BME280;64561;44.018;10.144;2023-06-04T10:16:58;101574.97;;;22.86;68.93
75886;BME280;64561;44.018;10.144;2023-06-04T10:19:26;101563.78;;;22.78;69.62
75886;BME280;64561;44.018;10.144;2023-06-04T10:21:55;101582.69;;;22.95;68.87
75886;BME280;64561;44.018;10.144;2023-06-04T10:24:23;101572.25;;;22.95;67.97
75886;BME280;64561;44.018;10.144;2023-06-04T10:26:54;101573.19;;;22.90;67.68
75886;BME280;64561;44.018;10.144;2023-06-04T10:29:25;101584.34;;;23.01;67.73
75886;BME280;64561;44.018;10.144;2023-06-04T10:31:55;101583.44;;;23.03;66.49
75886;BME280;64561;44.018;10.144;2023-06-04T10:34:23;101585.03;;;23.12;68.14
75886;BME280;64561;44.018;10.144;2023-06-04T10:36:50;101572.88;;;23.11;66.30
75886;BME280;64561;44.018;10.144;2023-06-04T10:39:26;101575.50;;;23.11;67.84
75886;BME280;64561;44.018;10.144;2023-06-04T10:41:57;101590.22;;;23.17;65.28
75886;BME280;64561;44.018;10.144;2023-06-04T10:44:25;101584.84;;;23.24;65.18
75886;BME280;64561;44.018;10.144;2023-06-04T10:46:52;101569.06;;;23.32;63.47
75886;BME280;64561;44.018;10.144;2023-06-04T10:49:29;101573.44;;;23.28;64.93
75886;BME280;64561;44.018;10.144;2023-06-04T10:51:58;101574.13;;;23.40;64.09
75886;BME280;64561;44.018;10.144;2023-06-04T10:54:30;101565.38;;;23.44;66.34
75886;BME280;64561;44.018;10.144;2023-06-04T10:56:57;101562.59;;;23.51;63.54
75886;BME280;64561;44.018;10.144;2023-06-04T10:59:24;101558.28;;;23.49;63.10
75886;BME280;64561;44.018;10.144;2023-06-04T11:02:04;101559.16;;;23.49;64.00
75886;BME280;64561;44.018;10.144;2023-06-04T11:04:33;101563.50;;;23.49;63.62
75886;BME280;64561;44.018;10.144;2023-06-04T11:07:04;101553.22;;;23.40;63.56
75886;BME280;64561;44.018;10.144;2023-06-04T11:09:47;101558.28;;;23.49;64.08
75886;BME280;64561;44.018;10.144;2023-06-04T11:12:15;101533.00;;;23.51;65.34
75886;BME280;64561;44.018;10.144;2023-06-04T11:14:54;101541.41;;;23.68;62.67
75886;BME280;64561;44.018;10.144;2023-06-04T11:17:21;101551.81;;;23.71;63.57
75886;BME280;64561;44.018;10.144;2023-06-04T11:19:49;101547.28;;;23.80;62.66
75886;BME280;64561;44.018;10.144;2023-06-04T11:22:16;101545.63;;;23.76;62.16
75886;BME280;64561;44.018;10.144;2023-06-04T11:24:45;101548.06;;;23.85;63.06
75886;BME280;64561;44.018;10.144;2023-06-04T11:27:12;101543.88;;;23.76;61.96
75886;BME280;64561;44.018;10.144;2023-06-04T11:29:54;101529.25;;;23.64;62.83
75886;BME280;64561;44.018;10.144;2023-06-04T11:32:24;101520.63;;;23.61;63.61
75886;BME280;64561;44.018;10.144;2023-06-04T11:35:02;101540.16;;;23.88;61.88
75886;BME280;64561;44.018;10.144;2023-06-04T11:37:30;101532.31;;;23.88;61.62
75886;BME280;64561;44.018;10.144;2023-06-04T11:39:59;101541.06;;;23.87;62.86
75886;BME280;64561;44.018;10.144;2023-06-04T11:42:32;101528.91;;;23.84;62.08
75886;BME280;64561;44.018;10.144;2023-06-04T11:45:00;101514.94;;;23.87;61.07
75886;BME280;64561;44.018;10.144;2023-06-04T11:47:29;101526.03;;;23.98;62.89
75886;BME280;64561;44.018;10.144;2023-06-04T11:49:57;101536.31;;;24.07;63.03
75886;BME280;64561;44.018;10.144;2023-06-04T11:52:24;101522.41;;;24.04;61.92
75886;BME280;64561;44.018;10.144;2023-06-04T11:54:51;101518.00;;;24.06;61.60
75886;BME280;64561;44.018;10.144;2023-06-04T11:57:21;101526.72;;;24.06;59.53
75886;BME280;64561;44.018;10.144;2023-06-04T11:59:49;101512.25;;;23.90;59.83
75886;BME280;64561;44.018;10.144;2023-06-04T12:02:16;101530.50;;;23.91;61.22
75886;BME280;64561;44.018;10.144;2023-06-04T12:04:43;101532.31;;;23.88;60.75
75886;BME280;64561;44.018;10.144;2023-06-04T12:07:10;101530.75;;;23.79;61.64
75886;BME280;64561;44.018;10.144;2023-06-04T12:09:38;101531.44;;;23.89;62.18
75886;BME280;64561;44.018;10.144;2023-06-04T12:12:07;101527.03;;;23.91;62.97
75886;BME280;64561;44.018;10.144;2023-06-04T12:14:35;101515.06;;;23.79;64.01
75886;BME280;64561;44.018;10.144;2023-06-04T12:17:06;101531.44;;;23.89;62.00
75886;BME280;64561;44.018;10.144;2023-06-04T12:19:48;101534.94;;;23.88;62.52
75886;BME280;64561;44.018;10.144;2023-06-04T12:22:16;101524.66;;;23.79;62.68
75886;BME280;64561;44.018;10.144;2023-06-04T12:24:54;101534.28;;;23.77;65.24
75886;BME280;64561;44.018;10.144;2023-06-04T12:27:23;101535.25;;;23.72;64.08
75886;BME280;64561;44.018;10.144;2023-06-04T12:30:00;101535.00;;;23.85;61.35
75886;BME280;64561;44.018;10.144;2023-06-04T12:32:29;101533.28;;;23.84;62.39
75886;BME280;64561;44.018;10.144;2023-06-04T12:34:56;101531.56;;;23.83;59.62
75886;BME280;64561;44.018;10.144;2023-06-04T12:37:23;101544.59;;;23.86;59.74
75886;BME280;64561;44.018;10.144;2023-06-04T12:39:54;101539.41;;;23.83;61.47
75886;BME280;64561;44.018;10.144;2023-06-04T12:42:22;101541.09;;;23.85;62.06
75886;BME280;64561;44.018;10.144;2023-06-04T12:44:49;101521.88;;;23.88;62.53
75886;BME280;64561;44.018;10.144;2023-06-04T12:47:16;101523.44;;;23.96;60.81
75886;BME280;64561;44.018;10.144;2023-06-04T12:49:44;101533.94;;;23.95;61.95
75886;BME280;64561;44.018;10.144;2023-06-04T12:52:12;101534.81;;;23.94;62.16
75886;BME280;64561;44.018;10.144;2023-06-04T12:54:43;101527.88;;;23.93;62.04
75886;BME280;64561;44.018;10.144;2023-06-04T12:57:10;101515.78;;;23.87;61.95
75886;BME280;64561;44.018;10.144;2023-06-04T12:59:38;101524.59;;;23.83;62.91
75886;BME280;64561;44.018;10.144;2023-06-04T13:02:05;101533.19;;;23.88;62.85
75886;BME280;64561;44.018;10.144;2023-06-04T13:04:32;101520.28;;;23.81;64.25